sensor_id;sensor_type;location;lat;lon;timestamp;P1;durP1;ratioP1;P2;durP2;ratioP2
19492;SDS011;9887;54.366;10.958;2023-12-22T00:02:13;22.33;;;3.85;;
19492;SDS011;9887;54.366;10.958;2023-12-22T00:04:41;15.25;;;3.95;;
19492;SDS011;9887;54.366;10.958;2023-12-22T00:07:09;16.95;;;3.92;;
19492;SDS011;9887;54.366;10.958;2023-12-22T00:09:36;21.95;;;3.95;;
19492;SDS011;9887;54.366;10.958;2023-12-22T00:12:04;15.32;;;3.00;;
19492;SDS011;9887;54.366;10.958;2023-12-22T00:14:33;23.48;;;4.25;;
19492;SDS011;9887;54.366;10.958;2023-12-22T00:17:02;27.38;;;4.22;;
19492;SDS011;9887;54.366;10.958;2023-12-22T00:19:30;24.02;;;4.07;;
19492;SDS011;9887;54.366;10.958;2023-12-22T00:21:58;19.33;;;3.60;;
19492;SDS011;9887;54.366;10.958;2023-12-22T00:24:26;20.05;;;3.92;;
19492;SDS011;9887;54.366;10.958;2023-12-22T00:26:54;19.42;;;3.55;;
19492;SDS011;9887;54.366;10.958;2023-12-22T00:29:21;17.98;;;3.78;;
19492;SDS011;9887;54.366;10.958;2023-12-22T00:31:49;22.35;;;4.35;;
19492;SDS011;9887;54.366;10.958;2023-12-22T00:34:18;17.52;;;3.53;;
19492;SDS011;9887;54.366;10.958;2023-12-22T00:36:46;22.25;;;4.35;;
19492;SDS011;9887;54.366;10.958;2023-12-22T00:39:14;20.77;;;4.32;;
19492;SDS011;9887;54.366;10.958;2023-12-22T00:41:42;21.98;;;4.30;;
19492;SDS011;9887;54.366;10.958;2023-12-22T00:44:10;18.55;;;4.50;;
19492;SDS011;9887;54.366;10.958;2023-12-22T00:46:38;19.42;;;4.15;;
19492;SDS011;9887;54.366;10.958;2023-12-22T00:49:06;18.20;;;4.20;;
19492;SDS011;9887;54.366;10.958;2023-12-22T00:51:35;17.52;;;3.17;;
19492;SDS011;9887;54.366;10.958;2023-12-22T00:54:03;18.20;;;3.80;;
19492;SDS011;9887;54.366;10.958;2023-12-22T00:56:30;18.65;;;3.42;;
19492;SDS011;9887;54.366;10.958;2023-12-22T00:58:58;14.82;;;2.83;;
19492;SDS011;9887;54.366;10.958;2023-12-22T01:01:36;16.75;;;3.45;;
19492;SDS011;9887;54.366;10.958;2023-12-22T01:04:04;14.38;;;3.40;;
19492;SDS011;9887;54.366;10.958;2023-12-22T01:06:34;17.38;;;3.75;;
19492;SDS011;9887;54.366;10.958;2023-12-22T01:09:04;19.70;;;3.13;;
19492;SDS011;9887;54.366;10.958;2023-12-22T01:11:32;15.63;;;3.25;;
19492;SDS011;9887;54.366;10.958;2023-12-22T01:14:00;23.17;;;3.90;;
19492;SDS011;9887;54.366;10.958;2023-12-22T01:16:28;15.30;;;3.20;;
19492;SDS011;9887;54.366;10.958;2023-12-22T01:18:56;17.30;;;3.60;;
19492;SDS011;9887;54.366;10.958;2023-12-22T01:21:24;15.75;;;3.13;;
19492;SDS011;9887;54.366;10.958;2023-12-22T01:23:53;16.67;;;3.65;;
19492;SDS011;9887;54.366;10.958;2023-12-22T01:26:21;19.33;;;3.92;;
19492;SDS011;9887;54.366;10.958;2023-12-22T01:28:49;24.30;;;4.00;;
19492;SDS011;9887;54.366;10.958;2023-12-22T01:31:17;18.60;;;5.25;;
19492;SDS011;9887;54.366;10.958;2023-12-22T01:33:45;17.33;;;4.18;;
19492;SDS011;9887;54.366;10.958;2023-12-22T01:36:13;12.82;;;3.53;;
19492;SDS011;9887;54.366;10.958;2023-12-22T01:38:41;24.02;;;3.80;;
19492;SDS011;9887;54.366;10.958;2023-12-22T01:41:10;26.38;;;5.15;;
19492;SDS011;9887;54.366;10.958;2023-12-22T01:43:38;20.80;;;4.00;;
19492;SDS011;9887;54.366;10.958;2023-12-22T01:46:06;29.88;;;5.28;;
19492;SDS011;9887;54.366;10.958;2023-12-22T01:48:34;22.77;;;4.30;;
19492;SDS011;9887;54.366;10.958;2023-12-22T01:51:03;21.48;;;5.00;;
19492;SDS011;9887;54.366;10.958;2023-12-22T01:53:32;20.42;;;4.47;;
19492;SDS011;9887;54.366;10.958;2023-12-22T01:56:05;25.85;;;4.85;;
19492;SDS011;9887;54.366;10.958;2023-12-22T01:58:35;25.33;;;4.63;;
19492;SDS011;9887;54.366;10.958;2023-12-22T02:01:15;18.92;;;3.95;;
19492;SDS011;9887;54.366;10.958;2023-12-22T02:03:43;18.73;;;5.00;;
19492;SDS011;9887;54.366;10.958;2023-12-22T02:06:11;27.77;;;6.00;;
19492;SDS011;9887;54.366;10.958;2023-12-22T02:08:39;19.92;;;4.97;;
19492;SDS011;9887;54.366;10.958;2023-12-22T02:11:08;18.10;;;3.65;;
19492;SDS011;9887;54.366;10.958;2023-12-22T02:13:37;18.27;;;3.67;;
19492;SDS011;9887;54.366;10.958;2023-12-22T02:16:07;21.17;;;3.53;;
19492;SDS011;9887;54.366;10.958;2023-12-22T02:18:41;19.88;;;3.40;;
19492;SDS011;9887;54.366;10.958;2023-12-22T02:21:13;19.10;;;3.13;;
19492;SDS011;9887;54.366;10.958;2023-12-22T02:23:42;15.95;;;2.88;;
19492;SDS011;9887;54.366;10.958;2023-12-22T02:26:12;15.25;;;2.80;;
19492;SDS011;9887;54.366;10.958;2023-12-22T02:28:45;17.33;;;2.47;;
19492;SDS011;9887;54.366;10.958;2023-12-22T02:31:17;13.02;;;2.90;;
19492;SDS011;9887;54.366;10.958;2023-12-22T02:33:50;12.55;;;2.50;;
19492;SDS011;9887;54.366;10.958;2023-12-22T02:36:21;9.80;;;2.38;;
19492;SDS011;9887;54.366;10.958;2023-12-22T02:38:52;17.42;;;3.00;;
19492;SDS011;9887;54.366;10.958;2023-12-22T02:41:25;13.35;;;2.92;;
19492;SDS011;9887;54.366;10.958;2023-12-22T02:43:53;14.48;;;3.85;;
19492;SDS011;9887;54.366;10.958;2023-12-22T02:46:21;18.08;;;2.63;;
19492;SDS011;9887;54.366;10.958;2023-12-22T02:48:49;17.25;;;3.05;;
19492;SDS011;9887;54.366;10.958;2023-12-22T02:51:17;15.18;;;2.75;;
19492;SDS011;9887;54.366;10.958;2023-12-22T02:53:45;12.50;;;2.97;;
19492;SDS011;9887;54.366;10.958;2023-12-22T02:56:14;13.68;;;3.13;;
19492;SDS011;9887;54.366;10.958;2023-12-22T02:58:42;17.13;;;3.15;;
19492;SDS011;9887;54.366;10.958;2023-12-22T03:01:11;15.15;;;3.25;;
19492;SDS011;9887;54.366;10.958;2023-12-22T03:03:39;13.13;;;2.83;;
19492;SDS011;9887;54.366;10.958;2023-12-22T03:06:07;13.52;;;3.00;;
19492;SDS011;9887;54.366;10.958;2023-12-22T03:08:35;13.15;;;3.10;;
19492;SDS011;9887;54.366;10.958;2023-12-22T03:11:03;13.93;;;2.97;;
19492;SDS011;9887;54.366;10.958;2023-12-22T03:13:32;11.85;;;2.60;;
19492;SDS011;9887;54.366;10.958;2023-12-22T03:16:00;12.45;;;2.50;;
19492;SDS011;9887;54.366;10.958;2023-12-22T03:18:27;15.15;;;2.80;;
19492;SDS011;9887;54.366;10.958;2023-12-22T03:20:55;14.98;;;3.38;;
19492;SDS011;9887;54.366;10.958;2023-12-22T03:23:23;14.95;;;2.65;;
19492;SDS011;9887;54.366;10.958;2023-12-22T03:25:51;17.52;;;3.10;;
19492;SDS011;9887;54.366;10.958;2023-12-22T03:28:19;11.27;;;2.03;;
19492;SDS011;9887;54.366;10.958;2023-12-22T03:30:48;14.07;;;2.70;;
19492;SDS011;9887;54.366;10.958;2023-12-22T03:33:16;17.30;;;2.58;;
19492;SDS011;9887;54.366;10.958;2023-12-22T03:35:43;12.20;;;2.17;;
19492;SDS011;9887;54.366;10.958;2023-12-22T03:38:11;9.98;;;2.08;;
19492;SDS011;9887;54.366;10.958;2023-12-22T03:40:38;11.15;;;2.20;;
19492;SDS011;9887;54.366;10.958;2023-12-22T03:43:06;10.13;;;1.90;;
19492;SDS011;9887;54.366;10.958;2023-12-22T03:45:34;16.98;;;2.33;;
19492;SDS011;9887;54.366;10.958;2023-12-22T03:48:04;12.23;;;2.13;;
19492;SDS011;9887;54.366;10.958;2023-12-22T03:50:33;16.42;;;2.28;;
19492;SDS011;9887;54.366;10.958;2023-12-22T03:53:00;13.38;;;2.40;;
19492;SDS011;9887;54.366;10.958;2023-12-22T03:55:29;9.23;;;1.85;;
19492;SDS011;9887;54.366;10.958;2023-12-22T03:57:57;8.63;;;2.28;;
19492;SDS011;9887;54.366;10.958;2023-12-22T04:00:25;12.13;;;2.38;;
19492;SDS011;9887;54.366;10.958;2023-12-22T04:02:52;12.52;;;3.35;;
19492;SDS011;9887;54.366;10.958;2023-12-22T04:05:24;15.55;;;2.55;;
19492;SDS011;9887;54.366;10.958;2023-12-22T04:07:52;11.30;;;2.60;;
19492;SDS011;9887;54.366;10.958;2023-12-22T04:10:20;12.27;;;2.63;;
19492;SDS011;9887;54.366;10.958;2023-12-22T04:12:48;9.95;;;2.55;;
19492;SDS011;9887;54.366;10.958;2023-12-22T04:15:16;12.35;;;2.55;;
19492;SDS011;9887;54.366;10.958;2023-12-22T04:17:44;11.32;;;2.42;;
19492;SDS011;9887;54.366;10.958;2023-12-22T04:20:12;12.25;;;2.80;;
19492;SDS011;9887;54.366;10.958;2023-12-22T04:22:41;12.13;;;2.50;;
19492;SDS011;9887;54.366;10.958;2023-12-22T04:25:09;11.45;;;2.45;;
19492;SDS011;9887;54.366;10.958;2023-12-22T04:27:37;18.70;;;3.88;;
19492;SDS011;9887;54.366;10.958;2023-12-22T04:30:06;17.15;;;3.83;;
19492;SDS011;9887;54.366;10.958;2023-12-22T04:32:35;19.02;;;3.13;;
19492;SDS011;9887;54.366;10.958;2023-12-22T04:35:03;17.17;;;3.53;;
19492;SDS011;9887;54.366;10.958;2023-12-22T04:37:31;18.90;;;3.35;;
19492;SDS011;9887;54.366;10.958;2023-12-22T04:40:00;16.85;;;3.65;;
19492;SDS011;9887;54.366;10.958;2023-12-22T04:42:30;20.63;;;4.35;;
19492;SDS011;9887;54.366;10.958;2023-12-22T04:44:58;14.85;;;3.13;;
19492;SDS011;9887;54.366;10.958;2023-12-22T04:47:26;17.27;;;3.17;;
19492;SDS011;9887;54.366;10.958;2023-12-22T04:49:54;18.00;;;3.42;;
19492;SDS011;9887;54.366;10.958;2023-12-22T04:52:22;21.05;;;3.42;;
19492;SDS011;9887;54.366;10.958;2023-12-22T04:54:50;18.98;;;3.42;;
19492;SDS011;9887;54.366;10.958;2023-12-22T04:57:19;19.80;;;4.93;;
19492;SDS011;9887;54.366;10.958;2023-12-22T04:59:48;18.25;;;3.80;;
19492;SDS011;9887;54.366;10.958;2023-12-22T05:02:16;15.80;;;3.72;;
19492;SDS011;9887;54.366;10.958;2023-12-22T05:04:45;18.10;;;3.78;;
19492;SDS011;9887;54.366;10.958;2023-12-22T05:07:13;25.83;;;4.47;;
19492;SDS011;9887;54.366;10.958;2023-12-22T05:09:41;19.15;;;4.35;;
19492;SDS011;9887;54.366;10.958;2023-12-22T05:12:09;15.43;;;3.78;;
19492;SDS011;9887;54.366;10.958;2023-12-22T05:14:38;21.05;;;3.70;;
19492;SDS011;9887;54.366;10.958;2023-12-22T05:17:06;23.30;;;4.60;;
19492;SDS011;9887;54.366;10.958;2023-12-22T05:19:34;24.17;;;4.30;;
19492;SDS011;9887;54.366;10.958;2023-12-22T05:22:02;22.33;;;4.25;;
19492;SDS011;9887;54.366;10.958;2023-12-22T05:24:30;19.20;;;4.18;;
19492;SDS011;9887;54.366;10.958;2023-12-22T05:26:58;21.95;;;3.13;;
19492;SDS011;9887;54.366;10.958;2023-12-22T05:29:26;22.05;;;4.05;;
19492;SDS011;9887;54.366;10.958;2023-12-22T05:31:55;18.35;;;4.13;;
19492;SDS011;9887;54.366;10.958;2023-12-22T05:34:23;18.23;;;3.72;;
19492;SDS011;9887;54.366;10.958;2023-12-22T05:36:51;23.35;;;5.10;;
19492;SDS011;9887;54.366;10.958;2023-12-22T05:39:19;20.55;;;4.35;;
19492;SDS011;9887;54.366;10.958;2023-12-22T05:41:47;18.20;;;3.35;;
19492;SDS011;9887;54.366;10.958;2023-12-22T05:44:15;22.90;;;3.67;;
19492;SDS011;9887;54.366;10.958;2023-12-22T05:46:43;20.08;;;4.45;;
19492;SDS011;9887;54.366;10.958;2023-12-22T05:49:12;24.60;;;3.97;;
19492;SDS011;9887;54.366;10.958;2023-12-22T05:51:40;16.17;;;4.10;;
19492;SDS011;9887;54.366;10.958;2023-12-22T05:54:08;16.90;;;3.90;;
19492;SDS011;9887;54.366;10.958;2023-12-22T05:56:37;13.32;;;3.35;;
19492;SDS011;9887;54.366;10.958;2023-12-22T05:59:04;16.30;;;3.60;;
19492;SDS011;9887;54.366;10.958;2023-12-22T06:01:32;15.95;;;2.75;;
19492;SDS011;9887;54.366;10.958;2023-12-22T06:04:00;15.63;;;3.13;;
19492;SDS011;9887;54.366;10.958;2023-12-22T06:06:29;15.60;;;4.15;;
19492;SDS011;9887;54.366;10.958;2023-12-22T06:08:56;14.10;;;3.20;;
19492;SDS011;9887;54.366;10.958;2023-12-22T06:11:24;11.57;;;2.83;;
19492;SDS011;9887;54.366;10.958;2023-12-22T06:13:52;16.10;;;3.67;;
19492;SDS011;9887;54.366;10.958;2023-12-22T06:16:20;18.02;;;3.60;;
19492;SDS011;9887;54.366;10.958;2023-12-22T06:18:49;11.60;;;2.67;;
19492;SDS011;9887;54.366;10.958;2023-12-22T06:21:17;16.25;;;3.22;;
19492;SDS011;9887;54.366;10.958;2023-12-22T06:23:46;13.70;;;3.30;;
19492;SDS011;9887;54.366;10.958;2023-12-22T06:26:14;16.52;;;3.60;;
19492;SDS011;9887;54.366;10.958;2023-12-22T06:28:41;17.05;;;3.53;;
19492;SDS011;9887;54.366;10.958;2023-12-22T06:31:16;11.20;;;3.33;;
19492;SDS011;9887;54.366;10.958;2023-12-22T06:33:46;17.42;;;2.70;;
19492;SDS011;9887;54.366;10.958;2023-12-22T06:36:18;17.70;;;3.45;;
19492;SDS011;9887;54.366;10.958;2023-12-22T06:38:48;14.55;;;3.42;;
19492;SDS011;9887;54.366;10.958;2023-12-22T06:41:20;14.45;;;2.78;;
19492;SDS011;9887;54.366;10.958;2023-12-22T06:43:53;14.32;;;3.38;;
19492;SDS011;9887;54.366;10.958;2023-12-22T06:46:23;15.55;;;2.60;;
19492;SDS011;9887;54.366;10.958;2023-12-22T06:48:53;17.35;;;3.78;;
19492;SDS011;9887;54.366;10.958;2023-12-22T06:51:23;18.38;;;3.30;;
19492;SDS011;9887;54.366;10.958;2023-12-22T06:53:54;13.88;;;3.28;;
19492;SDS011;9887;54.366;10.958;2023-12-22T06:56:23;18.52;;;3.33;;
19492;SDS011;9887;54.366;10.958;2023-12-22T06:58:52;13.65;;;2.70;;
19492;SDS011;9887;54.366;10.958;2023-12-22T07:01:21;16.27;;;3.45;;
19492;SDS011;9887;54.366;10.958;2023-12-22T07:03:50;18.30;;;4.18;;
19492;SDS011;9887;54.366;10.958;2023-12-22T07:06:18;17.48;;;3.08;;
19492;SDS011;9887;54.366;10.958;2023-12-22T07:08:58;14.07;;;3.10;;
19492;SDS011;9887;54.366;10.958;2023-12-22T07:11:57;11.75;;;2.60;;
19492;SDS011;9887;54.366;10.958;2023-12-22T07:14:25;11.77;;;2.45;;
19492;SDS011;9887;54.366;10.958;2023-12-22T07:16:53;15.02;;;3.20;;
19492;SDS011;9887;54.366;10.958;2023-12-22T07:19:21;17.15;;;2.83;;
19492;SDS011;9887;54.366;10.958;2023-12-22T07:21:49;11.25;;;2.58;;
19492;SDS011;9887;54.366;10.958;2023-12-22T07:24:18;15.15;;;2.72;;
19492;SDS011;9887;54.366;10.958;2023-12-22T07:26:46;17.23;;;2.83;;
19492;SDS011;9887;54.366;10.958;2023-12-22T07:29:14;14.82;;;2.83;;
19492;SDS011;9887;54.366;10.958;2023-12-22T07:31:42;14.48;;;3.15;;
19492;SDS011;9887;54.366;10.958;2023-12-22T07:34:12;11.50;;;2.50;;
19492;SDS011;9887;54.366;10.958;2023-12-22T07:36:41;17.33;;;3.05;;
19492;SDS011;9887;54.366;10.958;2023-12-22T07:39:23;19.30;;;3.28;;
19492;SDS011;9887;54.366;10.958;2023-12-22T07:41:51;15.00;;;3.33;;
19492;SDS011;9887;54.366;10.958;2023-12-22T07:44:19;13.90;;;2.95;;
19492;SDS011;9887;54.366;10.958;2023-12-22T07:46:55;13.82;;;3.28;;
19492;SDS011;9887;54.366;10.958;2023-12-22T07:49:29;13.13;;;2.65;;
19492;SDS011;9887;54.366;10.958;2023-12-22T07:51:58;15.57;;;2.70;;
19492;SDS011;9887;54.366;10.958;2023-12-22T07:54:31;16.92;;;3.20;;
19492;SDS011;9887;54.366;10.958;2023-12-22T07:56:59;20.25;;;4.45;;
19492;SDS011;9887;54.366;10.958;2023-12-22T07:59:27;11.25;;;2.80;;
19492;SDS011;9887;54.366;10.958;2023-12-22T08:01:57;19.42;;;3.65;;
19492;SDS011;9887;54.366;10.958;2023-12-22T08:04:27;19.20;;;3.38;;
19492;SDS011;9887;54.366;10.958;2023-12-22T08:06:55;20.27;;;2.95;;
19492;SDS011;9887;54.366;10.958;2023-12-22T08:09:23;14.93;;;3.03;;
19492;SDS011;9887;54.366;10.958;2023-12-22T08:11:52;11.68;;;2.83;;
19492;SDS011;9887;54.366;10.958;2023-12-22T08:14:22;12.77;;;2.63;;
19492;SDS011;9887;54.366;10.958;2023-12-22T08:16:50;20.88;;;2.80;;
19492;SDS011;9887;54.366;10.958;2023-12-22T08:19:18;16.52;;;3.28;;
19492;SDS011;9887;54.366;10.958;2023-12-22T08:21:48;16.35;;;2.85;;
19492;SDS011;9887;54.366;10.958;2023-12-22T08:24:18;18.88;;;3.70;;
19492;SDS011;9887;54.366;10.958;2023-12-22T08:26:49;12.25;;;2.53;;
19492;SDS011;9887;54.366;10.958;2023-12-22T08:29:18;20.38;;;3.15;;
19492;SDS011;9887;54.366;10.958;2023-12-22T08:31:46;12.85;;;2.90;;
19492;SDS011;9887;54.366;10.958;2023-12-22T08:34:18;14.25;;;3.55;;
19492;SDS011;9887;54.366;10.958;2023-12-22T08:36:47;20.33;;;2.92;;
19492;SDS011;9887;54.366;10.958;2023-12-22T08:39:19;15.27;;;3.38;;
19492;SDS011;9887;54.366;10.958;2023-12-22T08:41:48;18.60;;;3.42;;
19492;SDS011;9887;54.366;10.958;2023-12-22T08:44:16;27.60;;;3.80;;
19492;SDS011;9887;54.366;10.958;2023-12-22T08:46:45;19.00;;;5.22;;
19492;SDS011;9887;54.366;10.958;2023-12-22T08:49:13;15.07;;;3.22;;
19492;SDS011;9887;54.366;10.958;2023-12-22T08:51:41;21.15;;;3.63;;
19492;SDS011;9887;54.366;10.958;2023-12-22T08:54:09;20.77;;;4.00;;
19492;SDS011;9887;54.366;10.958;2023-12-22T08:56:37;20.60;;;3.85;;
19492;SDS011;9887;54.366;10.958;2023-12-22T08:59:05;17.00;;;3.85;;
19492;SDS011;9887;54.366;10.958;2023-12-22T09:01:35;18.67;;;3.97;;
19492;SDS011;9887;54.366;10.958;2023-12-22T09:04:05;15.35;;;3.33;;
19492;SDS011;9887;54.366;10.958;2023-12-22T09:06:35;20.67;;;4.25;;
19492;SDS011;9887;54.366;10.958;2023-12-22T09:09:03;25.70;;;3.17;;
19492;SDS011;9887;54.366;10.958;2023-12-22T09:11:31;15.68;;;3.22;;
19492;SDS011;9887;54.366;10.958;2023-12-22T09:13:58;17.75;;;5.55;;
19492;SDS011;9887;54.366;10.958;2023-12-22T09:16:29;17.75;;;3.58;;
19492;SDS011;9887;54.366;10.958;2023-12-22T09:19:02;24.42;;;4.15;;
19492;SDS011;9887;54.366;10.958;2023-12-22T09:21:31;17.48;;;3.28;;
19492;SDS011;9887;54.366;10.958;2023-12-22T09:24:00;20.58;;;4.45;;
19492;SDS011;9887;54.366;10.958;2023-12-22T09:26:28;15.68;;;3.25;;
19492;SDS011;9887;54.366;10.958;2023-12-22T09:28:56;21.77;;;4.35;;
19492;SDS011;9887;54.366;10.958;2023-12-22T09:31:25;20.98;;;4.00;;
19492;SDS011;9887;54.366;10.958;2023-12-22T09:33:53;11.90;;;3.35;;
19492;SDS011;9887;54.366;10.958;2023-12-22T09:36:24;14.60;;;3.92;;
19492;SDS011;9887;54.366;10.958;2023-12-22T09:38:53;15.40;;;3.65;;
19492;SDS011;9887;54.366;10.958;2023-12-22T09:41:21;15.55;;;3.55;;
19492;SDS011;9887;54.366;10.958;2023-12-22T09:43:49;19.33;;;3.88;;
19492;SDS011;9887;54.366;10.958;2023-12-22T09:46:19;23.52;;;3.83;;
19492;SDS011;9887;54.366;10.958;2023-12-22T09:48:49;18.83;;;3.92;;
19492;SDS011;9887;54.366;10.958;2023-12-22T09:51:19;17.42;;;3.28;;
19492;SDS011;9887;54.366;10.958;2023-12-22T09:53:48;17.65;;;2.88;;
19492;SDS011;9887;54.366;10.958;2023-12-22T09:56:19;12.57;;;2.65;;
19492;SDS011;9887;54.366;10.958;2023-12-22T09:58:48;16.23;;;3.10;;
19492;SDS011;9887;54.366;10.958;2023-12-22T10:01:24;17.83;;;2.70;;
19492;SDS011;9887;54.366;10.958;2023-12-22T10:04:00;15.27;;;2.75;;
19492;SDS011;9887;54.366;10.958;2023-12-22T10:06:54;18.63;;;2.78;;
19492;SDS011;9887;54.366;10.958;2023-12-22T10:09:30;15.50;;;2.92;;
19492;SDS011;9887;54.366;10.958;2023-12-22T10:12:08;15.48;;;2.78;;
19492;SDS011;9887;54.366;10.958;2023-12-22T10:14:41;15.10;;;3.50;;
19492;SDS011;9887;54.366;10.958;2023-12-22T10:17:13;15.98;;;2.80;;
19492;SDS011;9887;54.366;10.958;2023-12-22T10:19:45;10.60;;;2.65;;
19492;SDS011;9887;54.366;10.958;2023-12-22T10:22:24;15.35;;;3.13;;
19492;SDS011;9887;54.366;10.958;2023-12-22T10:24:54;12.50;;;3.10;;
19492;SDS011;9887;54.366;10.958;2023-12-22T10:27:27;14.23;;;2.72;;
19492;SDS011;9887;54.366;10.958;2023-12-22T10:30:02;16.70;;;2.97;;
19492;SDS011;9887;54.366;10.958;2023-12-22T10:32:39;15.43;;;3.03;;
19492;SDS011;9887;54.366;10.958;2023-12-22T10:35:10;12.73;;;3.83;;
19492;SDS011;9887;54.366;10.958;2023-12-22T10:37:43;13.48;;;2.55;;
19492;SDS011;9887;54.366;10.958;2023-12-22T10:40:17;9.77;;;2.50;;
19492;SDS011;9887;54.366;10.958;2023-12-22T10:42:50;14.32;;;3.38;;
19492;SDS011;9887;54.366;10.958;2023-12-22T10:45:20;13.30;;;2.45;;
19492;SDS011;9887;54.366;10.958;2023-12-22T10:47:52;15.02;;;3.03;;
19492;SDS011;9887;54.366;10.958;2023-12-22T10:50:23;18.05;;;3.30;;
19492;SDS011;9887;54.366;10.958;2023-12-22T10:52:55;18.40;;;3.03;;
19492;SDS011;9887;54.366;10.958;2023-12-22T10:55:29;15.00;;;3.13;;
19492;SDS011;9887;54.366;10.958;2023-12-22T10:57:58;13.20;;;2.88;;
19492;SDS011;9887;54.366;10.958;2023-12-22T11:00:36;18.13;;;2.67;;
19492;SDS011;9887;54.366;10.958;2023-12-22T11:03:09;14.23;;;2.80;;
19492;SDS011;9887;54.366;10.958;2023-12-22T11:05:45;12.75;;;2.85;;
19492;SDS011;9887;54.366;10.958;2023-12-22T11:08:19;20.15;;;2.97;;
19492;SDS011;9887;54.366;10.958;2023-12-22T11:10:56;14.32;;;2.97;;
19492;SDS011;9887;54.366;10.958;2023-12-22T11:13:27;18.92;;;3.90;;
19492;SDS011;9887;54.366;10.958;2023-12-22T11:15:57;12.00;;;2.60;;
19492;SDS011;9887;54.366;10.958;2023-12-22T11:18:25;15.95;;;2.63;;
19492;SDS011;9887;54.366;10.958;2023-12-22T11:20:54;14.07;;;3.30;;
19492;SDS011;9887;54.366;10.958;2023-12-22T11:23:23;11.93;;;2.75;;
19492;SDS011;9887;54.366;10.958;2023-12-22T11:25:52;13.93;;;3.17;;
19492;SDS011;9887;54.366;10.958;2023-12-22T11:28:21;12.82;;;2.45;;
19492;SDS011;9887;54.366;10.958;2023-12-22T11:30:53;15.65;;;2.88;;
19492;SDS011;9887;54.366;10.958;2023-12-22T11:33:24;10.52;;;2.13;;
19492;SDS011;9887;54.366;10.958;2023-12-22T11:35:54;12.57;;;2.15;;
19492;SDS011;9887;54.366;10.958;2023-12-22T11:38:23;11.32;;;2.28;;
19492;SDS011;9887;54.366;10.958;2023-12-22T11:40:51;10.35;;;2.75;;
19492;SDS011;9887;54.366;10.958;2023-12-22T11:43:20;13.10;;;2.65;;
19492;SDS011;9887;54.366;10.958;2023-12-22T11:45:48;11.68;;;2.20;;
19492;SDS011;9887;54.366;10.958;2023-12-22T11:48:18;11.38;;;2.58;;
19492;SDS011;9887;54.366;10.958;2023-12-22T11:50:47;12.70;;;2.40;;
19492;SDS011;9887;54.366;10.958;2023-12-22T11:53:18;10.88;;;2.83;;
19492;SDS011;9887;54.366;10.958;2023-12-22T11:55:55;10.32;;;2.00;;
19492;SDS011;9887;54.366;10.958;2023-12-22T11:58:37;11.20;;;2.25;;
19492;SDS011;9887;54.366;10.958;2023-12-22T12:01:07;13.57;;;2.05;;
19492;SDS011;9887;54.366;10.958;2023-12-22T12:03:40;13.20;;;2.30;;
19492;SDS011;9887;54.366;10.958;2023-12-22T12:06:16;14.23;;;2.55;;
19492;SDS011;9887;54.366;10.958;2023-12-22T12:08:48;13.13;;;2.55;;
19492;SDS011;9887;54.366;10.958;2023-12-22T12:11:17;11.18;;;2.28;;
19492;SDS011;9887;54.366;10.958;2023-12-22T12:13:46;12.32;;;2.58;;
19492;SDS011;9887;54.366;10.958;2023-12-22T12:16:15;12.48;;;2.67;;
19492;SDS011;9887;54.366;10.958;2023-12-22T12:18:49;15.65;;;3.03;;
19492;SDS011;9887;54.366;10.958;2023-12-22T12:21:19;14.45;;;3.08;;
19492;SDS011;9887;54.366;10.958;2023-12-22T12:23:47;12.25;;;2.53;;
19492;SDS011;9887;54.366;10.958;2023-12-22T12:26:16;12.13;;;2.13;;
19492;SDS011;9887;54.366;10.958;2023-12-22T12:28:45;13.60;;;2.20;;
19492;SDS011;9887;54.366;10.958;2023-12-22T12:31:14;10.95;;;2.20;;
19492;SDS011;9887;54.366;10.958;2023-12-22T12:33:42;15.52;;;2.35;;
19492;SDS011;9887;54.366;10.958;2023-12-22T12:36:11;12.68;;;2.25;;
19492;SDS011;9887;54.366;10.958;2023-12-22T12:38:43;10.52;;;2.03;;
19492;SDS011;9887;54.366;10.958;2023-12-22T12:41:15;10.70;;;2.30;;
19492;SDS011;9887;54.366;10.958;2023-12-22T12:43:43;12.25;;;2.50;;
19492;SDS011;9887;54.366;10.958;2023-12-22T12:46:12;10.55;;;2.15;;
19492;SDS011;9887;54.366;10.958;2023-12-22T12:48:42;11.10;;;2.50;;
19492;SDS011;9887;54.366;10.958;2023-12-22T12:51:11;8.57;;;2.10;;
19492;SDS011;9887;54.366;10.958;2023-12-22T12:53:39;13.18;;;2.55;;
19492;SDS011;9887;54.366;10.958;2023-12-22T12:56:07;10.13;;;2.45;;
19492;SDS011;9887;54.366;10.958;2023-12-22T12:58:35;9.15;;;1.80;;
19492;SDS011;9887;54.366;10.958;2023-12-22T13:01:06;10.23;;;2.13;;
19492;SDS011;9887;54.366;10.958;2023-12-22T13:03:51;11.23;;;2.55;;
19492;SDS011;9887;54.366;10.958;2023-12-22T13:06:21;12.75;;;2.30;;
19492;SDS011;9887;54.366;10.958;2023-12-22T13:08:49;13.70;;;2.33;;
19492;SDS011;9887;54.366;10.958;2023-12-22T13:11:19;13.25;;;2.47;;
19492;SDS011;9887;54.366;10.958;2023-12-22T13:13:48;9.00;;;2.17;;
19492;SDS011;9887;54.366;10.958;2023-12-22T13:16:18;11.23;;;2.67;;
19492;SDS011;9887;54.366;10.958;2023-12-22T13:18:46;16.27;;;2.88;;
19492;SDS011;9887;54.366;10.958;2023-12-22T13:21:15;13.93;;;2.70;;
19492;SDS011;9887;54.366;10.958;2023-12-22T13:23:45;16.88;;;2.45;;
19492;SDS011;9887;54.366;10.958;2023-12-22T13:26:18;12.65;;;2.15;;
19492;SDS011;9887;54.366;10.958;2023-12-22T13:28:46;7.88;;;2.08;;
19492;SDS011;9887;54.366;10.958;2023-12-22T13:31:14;7.63;;;2.15;;
19492;SDS011;9887;54.366;10.958;2023-12-22T13:33:44;13.63;;;2.30;;
19492;SDS011;9887;54.366;10.958;2023-12-22T13:36:13;7.45;;;1.95;;
19492;SDS011;9887;54.366;10.958;2023-12-22T13:38:46;9.10;;;2.10;;
19492;SDS011;9887;54.366;10.958;2023-12-22T13:41:14;13.20;;;2.85;;
19492;SDS011;9887;54.366;10.958;2023-12-22T13:43:43;13.90;;;2.70;;
19492;SDS011;9887;54.366;10.958;2023-12-22T13:46:11;10.63;;;2.83;;
19492;SDS011;9887;54.366;10.958;2023-12-22T13:48:40;12.18;;;3.20;;
19492;SDS011;9887;54.366;10.958;2023-12-22T13:51:08;9.15;;;2.55;;
19492;SDS011;9887;54.366;10.958;2023-12-22T13:53:47;12.38;;;2.05;;
19492;SDS011;9887;54.366;10.958;2023-12-22T13:56:15;5.90;;;1.67;;
19492;SDS011;9887;54.366;10.958;2023-12-22T13:58:43;8.48;;;1.83;;
19492;SDS011;9887;54.366;10.958;2023-12-22T14:01:12;8.07;;;1.80;;
19492;SDS011;9887;54.366;10.958;2023-12-22T14:03:41;9.90;;;1.73;;
19492;SDS011;9887;54.366;10.958;2023-12-22T14:06:11;13.85;;;1.92;;
19492;SDS011;9887;54.366;10.958;2023-12-22T14:08:39;11.13;;;2.10;;
19492;SDS011;9887;54.366;10.958;2023-12-22T14:11:09;18.52;;;2.38;;
19492;SDS011;9887;54.366;10.958;2023-12-22T14:13:38;11.15;;;1.90;;
19492;SDS011;9887;54.366;10.958;2023-12-22T14:16:07;12.68;;;2.00;;
19492;SDS011;9887;54.366;10.958;2023-12-22T14:18:35;11.10;;;2.15;;
19492;SDS011;9887;54.366;10.958;2023-12-22T14:21:03;8.45;;;2.13;;
19492;SDS011;9887;54.366;10.958;2023-12-22T14:23:31;5.40;;;1.65;;
19492;SDS011;9887;54.366;10.958;2023-12-22T14:25:59;8.93;;;1.70;;
19492;SDS011;9887;54.366;10.958;2023-12-22T14:28:28;10.45;;;1.75;;
19492;SDS011;9887;54.366;10.958;2023-12-22T14:30:56;9.57;;;1.98;;
19492;SDS011;9887;54.366;10.958;2023-12-22T14:33:24;9.75;;;2.17;;
19492;SDS011;9887;54.366;10.958;2023-12-22T14:35:52;10.90;;;1.90;;
19492;SDS011;9887;54.366;10.958;2023-12-22T14:38:20;6.50;;;1.75;;
19492;SDS011;9887;54.366;10.958;2023-12-22T14:40:48;8.45;;;1.70;;
19492;SDS011;9887;54.366;10.958;2023-12-22T14:43:16;8.75;;;2.05;;
19492;SDS011;9887;54.366;10.958;2023-12-22T14:45:45;10.73;;;2.20;;
19492;SDS011;9887;54.366;10.958;2023-12-22T14:48:13;10.02;;;2.00;;
19492;SDS011;9887;54.366;10.958;2023-12-22T14:50:41;11.95;;;2.00;;